sensor_id;sensor_type;location;lat;lon;timestamp;P1;durP1;ratioP1;P2;durP2;ratioP2
31730;SDS011;18310;55.586;12.286;2023-05-10T00:01:25;7.57;;;2.65;;
31730;SDS011;18310;55.586;12.286;2023-05-10T00:04:29;9.27;;;2.70;;
31730;SDS011;18310;55.586;12.286;2023-05-10T00:07:33;7.07;;;2.73;;
31730;SDS011;18310;55.586;12.286;2023-05-10T00:10:37;9.75;;;2.65;;
31730;SDS011;18310;55.586;12.286;2023-05-10T00:13:40;8.80;;;3.00;;
31730;SDS011;18310;55.586;12.286;2023-05-10T00:16:43;9.52;;;2.45;;
31730;SDS011;18310;55.586;12.286;2023-05-10T00:19:47;6.30;;;2.57;;
31730;SDS011;18310;55.586;12.286;2023-05-10T00:22:51;6.33;;;2.93;;
31730;SDS011;18310;55.586;12.286;2023-05-10T00:25:55;8.23;;;3.08;;
31730;SDS011;18310;55.586;12.286;2023-05-10T00:28:58;6.65;;;3.08;;
31730;SDS011;18310;55.586;12.286;2023-05-10T00:32:02;6.80;;;2.50;;
31730;SDS011;18310;55.586;12.286;2023-05-10T00:35:06;9.02;;;2.40;;
31730;SDS011;18310;55.586;12.286;2023-05-10T00:38:10;7.95;;;3.33;;
31730;SDS011;18310;55.586;12.286;2023-05-10T00:41:13;7.78;;;2.60;;
31730;SDS011;18310;55.586;12.286;2023-05-10T00:44:17;8.80;;;2.90;;
31730;SDS011;18310;55.586;12.286;2023-05-10T00:47:20;6.78;;;2.42;;
31730;SDS011;18310;55.586;12.286;2023-05-10T00:50:24;8.60;;;3.15;;
31730;SDS011;18310;55.586;12.286;2023-05-10T00:53:29;8.43;;;2.78;;
31730;SDS011;18310;55.586;12.286;2023-05-10T00:56:34;9.13;;;3.08;;
31730;SDS011;18310;55.586;12.286;2023-05-10T00:59:37;5.30;;;2.85;;
31730;SDS011;18310;55.586;12.286;2023-05-10T01:02:40;8.07;;;2.83;;
31730;SDS011;18310;55.586;12.286;2023-05-10T01:05:44;9.95;;;3.08;;
31730;SDS011;18310;55.586;12.286;2023-05-10T01:08:48;8.27;;;3.05;;
31730;SDS011;18310;55.586;12.286;2023-05-10T01:11:52;10.02;;;3.00;;
31730;SDS011;18310;55.586;12.286;2023-05-10T01:14:56;7.18;;;2.78;;
31730;SDS011;18310;55.586;12.286;2023-05-10T01:18:00;7.78;;;3.10;;
31730;SDS011;18310;55.586;12.286;2023-05-10T01:21:08;12.27;;;3.10;;
31730;SDS011;18310;55.586;12.286;2023-05-10T01:24:44;6.60;;;2.95;;
31730;SDS011;18310;55.586;12.286;2023-05-10T01:28:23;11.55;;;3.42;;
31730;SDS011;18310;55.586;12.286;2023-05-10T01:31:54;5.25;;;2.85;;
31730;SDS011;18310;55.586;12.286;2023-05-10T01:35:10;11.90;;;3.15;;
31730;SDS011;18310;55.586;12.286;2023-05-10T01:38:22;7.72;;;3.05;;
31730;SDS011;18310;55.586;12.286;2023-05-10T01:41:36;8.55;;;3.25;;
31730;SDS011;18310;55.586;12.286;2023-05-10T01:47:58;10.00;;;3.58;;
31730;SDS011;18310;55.586;12.286;2023-05-10T01:51:08;10.05;;;3.53;;
31730;SDS011;18310;55.586;12.286;2023-05-10T01:54:13;11.55;;;3.85;;
31730;SDS011;18310;55.586;12.286;2023-05-10T01:57:20;8.77;;;3.50;;
31730;SDS011;18310;55.586;12.286;2023-05-10T02:00:28;7.95;;;3.45;;
31730;SDS011;18310;55.586;12.286;2023-05-10T02:03:33;7.35;;;3.15;;
31730;SDS011;18310;55.586;12.286;2023-05-10T02:06:39;8.23;;;3.00;;
31730;SDS011;18310;55.586;12.286;2023-05-10T02:09:44;9.05;;;3.17;;
31730;SDS011;18310;55.586;12.286;2023-05-10T02:12:49;8.55;;;3.30;;
31730;SDS011;18310;55.586;12.286;2023-05-10T02:18:58;11.55;;;3.33;;
31730;SDS011;18310;55.586;12.286;2023-05-10T02:22:04;10.35;;;3.85;;
31730;SDS011;18310;55.586;12.286;2023-05-10T02:25:09;8.18;;;3.58;;
31730;SDS011;18310;55.586;12.286;2023-05-10T02:28:15;7.45;;;3.00;;
31730;SDS011;18310;55.586;12.286;2023-05-10T02:31:20;6.20;;;3.45;;
31730;SDS011;18310;55.586;12.286;2023-05-10T02:34:26;12.65;;;3.03;;
31730;SDS011;18310;55.586;12.286;2023-05-10T02:37:30;8.90;;;3.08;;
31730;SDS011;18310;55.586;12.286;2023-05-10T02:40:34;11.35;;;3.30;;
31730;SDS011;18310;55.586;12.286;2023-05-10T02:43:39;8.77;;;3.63;;
31730;SDS011;18310;55.586;12.286;2023-05-10T02:46:43;12.93;;;3.05;;
31730;SDS011;18310;55.586;12.286;2023-05-10T02:49:48;7.40;;;3.60;;
31730;SDS011;18310;55.586;12.286;2023-05-10T02:52:51;6.95;;;3.17;;
31730;SDS011;18310;55.586;12.286;2023-05-10T02:55:59;8.23;;;3.50;;
31730;SDS011;18310;55.586;12.286;2023-05-10T02:59:05;10.77;;;3.60;;
31730;SDS011;18310;55.586;12.286;2023-05-10T03:02:08;11.98;;;3.75;;
31730;SDS011;18310;55.586;12.286;2023-05-10T03:05:13;6.40;;;3.43;;
31730;SDS011;18310;55.586;12.286;2023-05-10T03:08:16;7.35;;;2.92;;
31730;SDS011;18310;55.586;12.286;2023-05-10T03:11:23;6.25;;;3.35;;
31730;SDS011;18310;55.586;12.286;2023-05-10T03:14:39;7.13;;;3.47;;
31730;SDS011;18310;55.586;12.286;2023-05-10T03:17:52;8.70;;;3.90;;
31730;SDS011;18310;55.586;12.286;2023-05-10T03:21:02;6.50;;;3.08;;
31730;SDS011;18310;55.586;12.286;2023-05-10T03:24:07;8.10;;;3.40;;
31730;SDS011;18310;55.586;12.286;2023-05-10T03:27:13;6.97;;;3.38;;
31730;SDS011;18310;55.586;12.286;2023-05-10T03:30:17;13.73;;;3.90;;
31730;SDS011;18310;55.586;12.286;2023-05-10T03:33:22;12.48;;;3.72;;
31730;SDS011;18310;55.586;12.286;2023-05-10T03:36:27;8.00;;;3.08;;
31730;SDS011;18310;55.586;12.286;2023-05-10T03:39:53;10.05;;;3.67;;
31730;SDS011;18310;55.586;12.286;2023-05-10T03:42:57;7.53;;;3.28;;
31730;SDS011;18310;55.586;12.286;2023-05-10T03:46:01;8.40;;;3.88;;
31730;SDS011;18310;55.586;12.286;2023-05-10T03:49:04;9.40;;;3.75;;
31730;SDS011;18310;55.586;12.286;2023-05-10T03:52:08;8.37;;;3.43;;
31730;SDS011;18310;55.586;12.286;2023-05-10T03:55:12;10.65;;;3.35;;
31730;SDS011;18310;55.586;12.286;2023-05-10T03:58:15;11.30;;;3.72;;
31730;SDS011;18310;55.586;12.286;2023-05-10T04:01:19;6.90;;;3.47;;
31730;SDS011;18310;55.586;12.286;2023-05-10T04:04:22;11.35;;;3.53;;
31730;SDS011;18310;55.586;12.286;2023-05-10T04:07:25;7.50;;;3.85;;
31730;SDS011;18310;55.586;12.286;2023-05-10T04:10:30;6.32;;;3.60;;
31730;SDS011;18310;55.586;12.286;2023-05-10T04:13:33;9.95;;;4.03;;
31730;SDS011;18310;55.586;12.286;2023-05-10T04:16:37;7.68;;;3.08;;
31730;SDS011;18310;55.586;12.286;2023-05-10T04:19:40;10.95;;;3.58;;
31730;SDS011;18310;55.586;12.286;2023-05-10T04:22:43;7.72;;;3.20;;
31730;SDS011;18310;55.586;12.286;2023-05-10T04:25:47;9.38;;;3.90;;
31730;SDS011;18310;55.586;12.286;2023-05-10T04:28:51;9.95;;;4.38;;
31730;SDS011;18310;55.586;12.286;2023-05-10T04:31:54;10.63;;;3.75;;
31730;SDS011;18310;55.586;12.286;2023-05-10T04:34:58;16.20;;;3.72;;
31730;SDS011;18310;55.586;12.286;2023-05-10T04:38:01;5.75;;;3.10;;
31730;SDS011;18310;55.586;12.286;2023-05-10T04:41:06;11.32;;;3.75;;
31730;SDS011;18310;55.586;12.286;2023-05-10T04:44:10;9.55;;;3.65;;
31730;SDS011;18310;55.586;12.286;2023-05-10T04:47:13;13.07;;;3.70;;
31730;SDS011;18310;55.586;12.286;2023-05-10T04:53:20;4.93;;;3.05;;
31730;SDS011;18310;55.586;12.286;2023-05-10T04:56:25;10.07;;;3.53;;
31730;SDS011;18310;55.586;12.286;2023-05-10T04:59:28;8.43;;;3.58;;
31730;SDS011;18310;55.586;12.286;2023-05-10T05:02:31;9.52;;;3.65;;
31730;SDS011;18310;55.586;12.286;2023-05-10T05:05:35;8.97;;;3.40;;
31730;SDS011;18310;55.586;12.286;2023-05-10T05:08:38;8.37;;;3.53;;
31730;SDS011;18310;55.586;12.286;2023-05-10T05:11:43;6.57;;;3.28;;
31730;SDS011;18310;55.586;12.286;2023-05-10T05:14:46;8.27;;;4.03;;
31730;SDS011;18310;55.586;12.286;2023-05-10T05:17:49;6.40;;;3.10;;
31730;SDS011;18310;55.586;12.286;2023-05-10T05:20:53;8.00;;;3.45;;
31730;SDS011;18310;55.586;12.286;2023-05-10T05:23:56;11.45;;;3.55;;
31730;SDS011;18310;55.586;12.286;2023-05-10T05:27:00;6.30;;;3.65;;
31730;SDS011;18310;55.586;12.286;2023-05-10T05:30:04;8.23;;;3.92;;
31730;SDS011;18310;55.586;12.286;2023-05-10T05:33:09;8.23;;;3.20;;
31730;SDS011;18310;55.586;12.286;2023-05-10T05:36:13;8.43;;;3.60;;
31730;SDS011;18310;55.586;12.286;2023-05-10T05:39:16;9.97;;;3.73;;
31730;SDS011;18310;55.586;12.286;2023-05-10T05:42:20;9.35;;;3.70;;
31730;SDS011;18310;55.586;12.286;2023-05-10T05:45:24;10.02;;;3.13;;
31730;SDS011;18310;55.586;12.286;2023-05-10T05:48:27;5.47;;;3.00;;
31730;SDS011;18310;55.586;12.286;2023-05-10T05:51:32;11.88;;;4.15;;
31730;SDS011;18310;55.586;12.286;2023-05-10T05:54:36;11.55;;;3.42;;
31730;SDS011;18310;55.586;12.286;2023-05-10T05:57:40;10.65;;;3.83;;
31730;SDS011;18310;55.586;12.286;2023-05-10T06:00:43;8.25;;;3.53;;
31730;SDS011;18310;55.586;12.286;2023-05-10T06:03:47;9.35;;;3.40;;
31730;SDS011;18310;55.586;12.286;2023-05-10T06:06:53;7.18;;;3.22;;
31730;SDS011;18310;55.586;12.286;2023-05-10T06:09:56;6.90;;;2.95;;
31730;SDS011;18310;55.586;12.286;2023-05-10T06:13:01;7.03;;;3.50;;
31730;SDS011;18310;55.586;12.286;2023-05-10T06:16:04;8.50;;;3.33;;
31730;SDS011;18310;55.586;12.286;2023-05-10T06:19:08;8.05;;;3.38;;
31730;SDS011;18310;55.586;12.286;2023-05-10T06:22:11;7.20;;;2.87;;
31730;SDS011;18310;55.586;12.286;2023-05-10T06:25:15;8.32;;;3.13;;
31730;SDS011;18310;55.586;12.286;2023-05-10T06:28:21;11.85;;;3.88;;
31730;SDS011;18310;55.586;12.286;2023-05-10T06:31:24;10.90;;;3.92;;
31730;SDS011;18310;55.586;12.286;2023-05-10T06:34:27;8.93;;;3.50;;
31730;SDS011;18310;55.586;12.286;2023-05-10T06:37:30;8.65;;;3.58;;
31730;SDS011;18310;55.586;12.286;2023-05-10T06:40:33;13.57;;;4.53;;
31730;SDS011;18310;55.586;12.286;2023-05-10T06:43:38;7.65;;;3.92;;
31730;SDS011;18310;55.586;12.286;2023-05-10T06:46:42;8.55;;;3.88;;
31730;SDS011;18310;55.586;12.286;2023-05-10T06:49:46;10.23;;;3.78;;
31730;SDS011;18310;55.586;12.286;2023-05-10T06:52:49;5.67;;;2.83;;
31730;SDS011;18310;55.586;12.286;2023-05-10T06:55:53;7.22;;;3.03;;
31730;SDS011;18310;55.586;12.286;2023-05-10T06:58:58;10.73;;;3.87;;
31730;SDS011;18310;55.586;12.286;2023-05-10T07:02:02;12.13;;;3.88;;
31730;SDS011;18310;55.586;12.286;2023-05-10T07:05:05;8.38;;;3.80;;
31730;SDS011;18310;55.586;12.286;2023-05-10T07:08:09;11.65;;;3.30;;
31730;SDS011;18310;55.586;12.286;2023-05-10T07:11:12;9.38;;;3.83;;
31730;SDS011;18310;55.586;12.286;2023-05-10T07:14:16;8.60;;;3.63;;
31730;SDS011;18310;55.586;12.286;2023-05-10T07:17:19;10.95;;;3.17;;
31730;SDS011;18310;55.586;12.286;2023-05-10T07:20:23;9.07;;;3.77;;
31730;SDS011;18310;55.586;12.286;2023-05-10T07:23:26;11.25;;;3.95;;
31730;SDS011;18310;55.586;12.286;2023-05-10T07:26:29;6.57;;;3.42;;
31730;SDS011;18310;55.586;12.286;2023-05-10T07:29:33;8.30;;;3.43;;
31730;SDS011;18310;55.586;12.286;2023-05-10T07:32:37;11.35;;;3.88;;
31730;SDS011;18310;55.586;12.286;2023-05-10T07:38:44;6.80;;;3.67;;
31730;SDS011;18310;55.586;12.286;2023-05-10T07:41:47;8.73;;;3.53;;
31730;SDS011;18310;55.586;12.286;2023-05-10T07:44:51;8.90;;;3.63;;
31730;SDS011;18310;55.586;12.286;2023-05-10T07:47:55;6.82;;;3.20;;
31730;SDS011;18310;55.586;12.286;2023-05-10T07:50:58;7.07;;;3.20;;
31730;SDS011;18310;55.586;12.286;2023-05-10T07:54:01;9.37;;;4.03;;
31730;SDS011;18310;55.586;12.286;2023-05-10T07:57:05;9.70;;;3.40;;
31730;SDS011;18310;55.586;12.286;2023-05-10T08:00:15;8.50;;;3.58;;
31730;SDS011;18310;55.586;12.286;2023-05-10T08:03:20;9.38;;;3.63;;
31730;SDS011;18310;55.586;12.286;2023-05-10T08:09:28;12.17;;;3.63;;
31730;SDS011;18310;55.586;12.286;2023-05-10T08:12:32;8.40;;;3.93;;
31730;SDS011;18310;55.586;12.286;2023-05-10T08:15:36;7.35;;;3.63;;
31730;SDS011;18310;55.586;12.286;2023-05-10T08:18:39;8.60;;;3.38;;
31730;SDS011;18310;55.586;12.286;2023-05-10T08:21:43;8.33;;;3.93;;
31730;SDS011;18310;55.586;12.286;2023-05-10T08:24:46;10.17;;;3.80;;
31730;SDS011;18310;55.586;12.286;2023-05-10T08:27:49;11.18;;;4.13;;
31730;SDS011;18310;55.586;12.286;2023-05-10T08:30:54;5.60;;;3.37;;
31730;SDS011;18310;55.586;12.286;2023-05-10T08:33:57;8.85;;;3.92;;
31730;SDS011;18310;55.586;12.286;2023-05-10T08:37:01;5.57;;;3.20;;
31730;SDS011;18310;55.586;12.286;2023-05-10T08:40:05;8.60;;;3.90;;
31730;SDS011;18310;55.586;12.286;2023-05-10T08:43:10;7.80;;;3.58;;
31730;SDS011;18310;55.586;12.286;2023-05-10T08:46:17;10.32;;;3.47;;
31730;SDS011;18310;55.586;12.286;2023-05-10T08:49:21;11.00;;;3.80;;
31730;SDS011;18310;55.586;12.286;2023-05-10T08:52:26;12.35;;;4.28;;
31730;SDS011;18310;55.586;12.286;2023-05-10T08:55:32;6.85;;;3.03;;
31730;SDS011;18310;55.586;12.286;2023-05-10T08:58:35;8.43;;;3.47;;
31730;SDS011;18310;55.586;12.286;2023-05-10T09:01:40;8.37;;;3.60;;
31730;SDS011;18310;55.586;12.286;2023-05-10T09:04:46;11.93;;;4.22;;
31730;SDS011;18310;55.586;12.286;2023-05-10T09:07:50;7.28;;;3.83;;
31730;SDS011;18310;55.586;12.286;2023-05-10T09:10:54;9.30;;;3.90;;
31730;SDS011;18310;55.586;12.286;2023-05-10T09:17:03;9.23;;;3.42;;
31730;SDS011;18310;55.586;12.286;2023-05-10T09:20:07;9.68;;;4.28;;
31730;SDS011;18310;55.586;12.286;2023-05-10T09:23:11;12.45;;;3.75;;
31730;SDS011;18310;55.586;12.286;2023-05-10T09:26:14;8.45;;;4.32;;
31730;SDS011;18310;55.586;12.286;2023-05-10T09:29:17;6.33;;;3.60;;
31730;SDS011;18310;55.586;12.286;2023-05-10T09:32:22;7.23;;;3.07;;
31730;SDS011;18310;55.586;12.286;2023-05-10T09:35:38;10.65;;;4.28;;
31730;SDS011;18310;55.586;12.286;2023-05-10T09:38:45;6.87;;;3.53;;
31730;SDS011;18310;55.586;12.286;2023-05-10T09:41:50;9.20;;;3.78;;
31730;SDS011;18310;55.586;12.286;2023-05-10T09:44:54;13.70;;;4.07;;
31730;SDS011;18310;55.586;12.286;2023-05-10T09:48:04;8.02;;;4.03;;
31730;SDS011;18310;55.586;12.286;2023-05-10T09:51:08;8.43;;;3.80;;
31730;SDS011;18310;55.586;12.286;2023-05-10T09:54:12;10.82;;;3.95;;
31730;SDS011;18310;55.586;12.286;2023-05-10T09:57:18;8.52;;;3.88;;
31730;SDS011;18310;55.586;12.286;2023-05-10T10:00:23;8.07;;;3.45;;
31730;SDS011;18310;55.586;12.286;2023-05-10T10:03:28;10.67;;;3.57;;
31730;SDS011;18310;55.586;12.286;2023-05-10T10:06:35;7.78;;;3.65;;
31730;SDS011;18310;55.586;12.286;2023-05-10T10:09:39;6.97;;;3.33;;
31730;SDS011;18310;55.586;12.286;2023-05-10T10:12:42;7.60;;;3.70;;
31730;SDS011;18310;55.586;12.286;2023-05-10T10:15:46;8.45;;;4.05;;
31730;SDS011;18310;55.586;12.286;2023-05-10T10:18:54;7.70;;;4.03;;
31730;SDS011;18310;55.586;12.286;2023-05-10T10:21:58;10.48;;;4.43;;
31730;SDS011;18310;55.586;12.286;2023-05-10T10:25:02;8.52;;;3.92;;
31730;SDS011;18310;55.586;12.286;2023-05-10T10:28:09;9.77;;;4.00;;
31730;SDS011;18310;55.586;12.286;2023-05-10T10:31:25;9.85;;;3.60;;
31730;SDS011;18310;55.586;12.286;2023-05-10T10:34:36;8.73;;;4.07;;
31730;SDS011;18310;55.586;12.286;2023-05-10T10:37:45;6.13;;;3.60;;
31730;SDS011;18310;55.586;12.286;2023-05-10T10:40:49;13.13;;;4.22;;
31730;SDS011;18310;55.586;12.286;2023-05-10T10:44:23;11.25;;;4.00;;
31730;SDS011;18310;55.586;12.286;2023-05-10T10:47:28;11.23;;;4.35;;
31730;SDS011;18310;55.586;12.286;2023-05-10T10:50:44;19.77;;;3.85;;
31730;SDS011;18310;55.586;12.286;2023-05-10T10:53:48;13.67;;;4.63;;
31730;SDS011;18310;55.586;12.286;2023-05-10T11:00:20;8.50;;;3.88;;
31730;SDS011;18310;55.586;12.286;2023-05-10T11:03:25;10.32;;;4.25;;
31730;SDS011;18310;55.586;12.286;2023-05-10T11:06:32;14.23;;;4.30;;
31730;SDS011;18310;55.586;12.286;2023-05-10T11:09:39;9.75;;;3.38;;
31730;SDS011;18310;55.586;12.286;2023-05-10T11:12:50;8.32;;;3.88;;
31730;SDS011;18310;55.586;12.286;2023-05-10T11:15:54;7.43;;;4.00;;
31730;SDS011;18310;55.586;12.286;2023-05-10T11:18:59;17.63;;;3.85;;
31730;SDS011;18310;55.586;12.286;2023-05-10T11:22:12;12.43;;;4.03;;
31730;SDS011;18310;55.586;12.286;2023-05-10T11:25:16;8.13;;;3.80;;
31730;SDS011;18310;55.586;12.286;2023-05-10T11:28:20;9.52;;;3.90;;
31730;SDS011;18310;55.586;12.286;2023-05-10T11:31:24;6.57;;;3.23;;
31730;SDS011;18310;55.586;12.286;2023-05-10T11:34:29;11.18;;;3.95;;
31730;SDS011;18310;55.586;12.286;2023-05-10T11:37:36;8.20;;;3.47;;
31730;SDS011;18310;55.586;12.286;2023-05-10T11:40:42;6.70;;;3.50;;
31730;SDS011;18310;55.586;12.286;2023-05-10T11:43:46;9.15;;;3.70;;
31730;SDS011;18310;55.586;12.286;2023-05-10T11:46:50;9.80;;;3.92;;
31730;SDS011;18310;55.586;12.286;2023-05-10T11:49:54;6.47;;;3.33;;
31730;SDS011;18310;55.586;12.286;2023-05-10T11:52:59;7.32;;;2.85;;
31730;SDS011;18310;55.586;12.286;2023-05-10T11:56:02;8.90;;;3.28;;
31730;SDS011;18310;55.586;12.286;2023-05-10T12:02:10;6.93;;;3.30;;
31730;SDS011;18310;55.586;12.286;2023-05-10T12:05:14;7.47;;;3.93;;
31730;SDS011;18310;55.586;12.286;2023-05-10T12:08:21;7.88;;;4.00;;
31730;SDS011;18310;55.586;12.286;2023-05-10T12:11:25;12.30;;;3.47;;
31730;SDS011;18310;55.586;12.286;2023-05-10T12:14:29;6.22;;;3.67;;
31730;SDS011;18310;55.586;12.286;2023-05-10T12:17:37;10.07;;;3.65;;
31730;SDS011;18310;55.586;12.286;2023-05-10T12:20:44;5.97;;;3.28;;
31730;SDS011;18310;55.586;12.286;2023-05-10T12:23:49;7.57;;;3.80;;
31730;SDS011;18310;55.586;12.286;2023-05-10T12:26:53;7.95;;;3.20;;
31730;SDS011;18310;55.586;12.286;2023-05-10T12:29:58;9.00;;;3.45;;
31730;SDS011;18310;55.586;12.286;2023-05-10T12:33:02;13.80;;;3.60;;
31730;SDS011;18310;55.586;12.286;2023-05-10T12:36:10;7.75;;;3.28;;
31730;SDS011;18310;55.586;12.286;2023-05-10T12:39:16;9.68;;;2.78;;
31730;SDS011;18310;55.586;12.286;2023-05-10T12:42:19;9.43;;;3.70;;
31730;SDS011;18310;55.586;12.286;2023-05-10T12:45:23;10.73;;;3.55;;
31730;SDS011;18310;55.586;12.286;2023-05-10T12:48:26;8.93;;;3.25;;
31730;SDS011;18310;55.586;12.286;2023-05-10T12:51:30;5.25;;;3.22;;
31730;SDS011;18310;55.586;12.286;2023-05-10T12:54:34;6.20;;;3.10;;
31730;SDS011;18310;55.586;12.286;2023-05-10T12:57:37;5.80;;;3.35;;
31730;SDS011;18310;55.586;12.286;2023-05-10T13:00:41;8.38;;;3.58;;
31730;SDS011;18310;55.586;12.286;2023-05-10T13:03:45;8.65;;;4.00;;
31730;SDS011;18310;55.586;12.286;2023-05-10T13:06:48;11.07;;;3.33;;
31730;SDS011;18310;55.586;12.286;2023-05-10T13:09:52;9.82;;;3.63;;
31730;SDS011;18310;55.586;12.286;2023-05-10T13:12:56;8.27;;;3.67;;
31730;SDS011;18310;55.586;12.286;2023-05-10T13:19:03;6.20;;;2.70;;
31730;SDS011;18310;55.586;12.286;2023-05-10T13:22:06;6.03;;;3.00;;
31730;SDS011;18310;55.586;12.286;2023-05-10T13:25:10;7.03;;;3.10;;
31730;SDS011;18310;55.586;12.286;2023-05-10T13:28:14;7.07;;;2.78;;
31730;SDS011;18310;55.586;12.286;2023-05-10T13:31:17;7.35;;;2.60;;
31730;SDS011;18310;55.586;12.286;2023-05-10T13:34:20;5.60;;;3.00;;
31730;SDS011;18310;55.586;12.286;2023-05-10T13:37:23;10.52;;;3.13;;
31730;SDS011;18310;55.586;12.286;2023-05-10T13:40:27;7.20;;;3.75;;
31730;SDS011;18310;55.586;12.286;2023-05-10T13:43:31;5.78;;;2.72;;
31730;SDS011;18310;55.586;12.286;2023-05-10T13:46:34;6.22;;;2.83;;
31730;SDS011;18310;55.586;12.286;2023-05-10T13:49:37;7.83;;;3.00;;
31730;SDS011;18310;55.586;12.286;2023-05-10T13:52:40;7.70;;;2.57;;
31730;SDS011;18310;55.586;12.286;2023-05-10T13:55:45;7.72;;;2.50;;
31730;SDS011;18310;55.586;12.286;2023-05-10T13:58:49;5.55;;;2.70;;
31730;SDS011;18310;55.586;12.286;2023-05-10T14:01:51;8.95;;;2.40;;
31730;SDS011;18310;55.586;12.286;2023-05-10T14:04:55;5.35;;;2.47;;
31730;SDS011;18310;55.586;12.286;2023-05-10T14:07:59;4.60;;;2.90;;
31730;SDS011;18310;55.586;12.286;2023-05-10T14:11:03;7.97;;;2.43;;
31730;SDS011;18310;55.586;12.286;2023-05-10T14:14:07;5.15;;;2.38;;
31730;SDS011;18310;55.586;12.286;2023-05-10T14:17:10;4.97;;;2.45;;
31730;SDS011;18310;55.586;12.286;2023-05-10T14:20:14;5.72;;;2.30;;
31730;SDS011;18310;55.586;12.286;2023-05-10T14:23:17;4.63;;;2.58;;
31730;SDS011;18310;55.586;12.286;2023-05-10T14:26:22;7.70;;;2.17;;
31730;SDS011;18310;55.586;12.286;2023-05-10T14:29:26;4.95;;;2.22;;
31730;SDS011;18310;55.586;12.286;2023-05-10T14:32:30;9.07;;;2.05;;
31730;SDS011;18310;55.586;12.286;2023-05-10T14:35:33;5.68;;;2.28;;
31730;SDS011;18310;55.586;12.286;2023-05-10T14:38:36;5.63;;;2.08;;
31730;SDS011;18310;55.586;12.286;2023-05-10T14:41:41;8.27;;;2.35;;
31730;SDS011;18310;55.586;12.286;2023-05-10T14:44:46;7.20;;;2.33;;
31730;SDS011;18310;55.586;12.286;2023-05-10T14:47:49;3.75;;;1.60;;
31730;SDS011;18310;55.586;12.286;2023-05-10T14:50:53;6.35;;;1.90;;
31730;SDS011;18310;55.586;12.286;2023-05-10T14:53:56;6.03;;;1.98;;
31730;SDS011;18310;55.586;12.286;2023-05-10T14:57:00;9.00;;;2.30;;
31730;SDS011;18310;55.586;12.286;2023-05-10T15:00:04;3.85;;;1.92;;
31730;SDS011;18310;55.586;12.286;2023-05-10T15:03:09;10.52;;;2.13;;
31730;SDS011;18310;55.586;12.286;2023-05-10T15:06:13;6.78;;;2.47;;
31730;SDS011;18310;55.586;12.286;2023-05-10T15:09:16;8.15;;;2.25;;
31730;SDS011;18310;55.586;12.286;2023-05-10T15:12:21;4.80;;;2.45;;
31730;SDS011;18310;55.586;12.286;2023-05-10T15:15:24;4.93;;;2.10;;
31730;SDS011;18310;55.586;12.286;2023-05-10T15:18:27;8.30;;;2.80;;
31730;SDS011;18310;55.586;12.286;2023-05-10T15:21:30;8.00;;;1.95;;
31730;SDS011;18310;55.586;12.286;2023-05-10T15:24:40;5.80;;;2.58;;
31730;SDS011;18310;55.586;12.286;2023-05-10T15:27:44;7.10;;;2.08;;
31730;SDS011;18310;55.586;12.286;2023-05-10T15:30:47;8.18;;;2.47;;
31730;SDS011;18310;55.586;12.286;2023-05-10T15:33:51;5.55;;;2.25;;
31730;SDS011;18310;55.586;12.286;2023-05-10T15:36:55;3.70;;;2.00;;
31730;SDS011;18310;55.586;12.286;2023-05-10T15:39:58;5.32;;;2.00;;
31730;SDS011;18310;55.586;12.286;2023-05-10T15:43:06;4.95;;;2.35;;
31730;SDS011;18310;55.586;12.286;2023-05-10T15:46:09;5.55;;;1.98;;
31730;SDS011;18310;55.586;12.286;2023-05-10T15:49:13;5.73;;;2.23;;
31730;SDS011;18310;55.586;12.286;2023-05-10T15:52:16;8.93;;;2.28;;
31730;SDS011;18310;55.586;12.286;2023-05-10T15:57:03;5.07;;;1.67;;
31730;SDS011;18310;55.586;12.286;2023-05-10T16:00:06;4.65;;;1.92;;
31730;SDS011;18310;55.586;12.286;2023-05-10T16:03:10;7.90;;;2.13;;
31730;SDS011;18310;55.586;12.286;2023-05-10T16:06:14;5.50;;;2.08;;
31730;SDS011;18310;55.586;12.286;2023-05-10T16:09:17;4.57;;;2.10;;
31730;SDS011;18310;55.586;12.286;2023-05-10T16:12:22;12.82;;;2.40;;
31730;SDS011;18310;55.586;12.286;2023-05-10T16:15:25;5.50;;;2.10;;
31730;SDS011;18310;55.586;12.286;2023-05-10T16:18:28;5.88;;;2.28;;
31730;SDS011;18310;55.586;12.286;2023-05-10T16:21:32;7.27;;;2.07;;
31730;SDS011;18310;55.586;12.286;2023-05-10T16:24:36;4.82;;;2.15;;
31730;SDS011;18310;55.586;12.286;2023-05-10T16:27:40;5.22;;;2.47;;
31730;SDS011;18310;55.586;12.286;2023-05-10T16:30:43;7.10;;;2.03;;
31730;SDS011;18310;55.586;12.286;2023-05-10T16:33:48;3.97;;;2.35;;
31730;SDS011;18310;55.586;12.286;2023-05-10T16:36:51;8.00;;;2.15;;
31730;SDS011;18310;55.586;12.286;2023-05-10T16:40:18;4.85;;;2.10;;
31730;SDS011;18310;55.586;12.286;2023-05-10T16:43:21;3.97;;;1.63;;
31730;SDS011;18310;55.586;12.286;2023-05-10T16:46:26;8.43;;;2.08;;
31730;SDS011;18310;55.586;12.286;2023-05-10T16:49:30;6.00;;;1.97;;
31730;SDS011;18310;55.586;12.286;2023-05-10T16:52:33;6.78;;;2.20;;
31730;SDS011;18310;55.586;12.286;2023-05-10T16:55:39;7.57;;;2.40;;
31730;SDS011;18310;55.586;12.286;2023-05-10T16:58:42;6.65;;;2.25;;
31730;SDS011;18310;55.586;12.286;2023-05-10T17:01:45;7.18;;;2.22;;
31730;SDS011;18310;55.586;12.286;2023-05-10T17:04:49;5.68;;;2.08;;
31730;SDS011;18310;55.586;12.286;2023-05-10T17:07:53;4.82;;;2.25;;
31730;SDS011;18310;55.586;12.286;2023-05-10T17:11:00;6.37;;;2.13;;
31730;SDS011;18310;55.586;12.286;2023-05-10T17:14:05;4.72;;;1.90;;
31730;SDS011;18310;55.586;12.286;2023-05-10T17:17:08;9.17;;;2.50;;
31730;SDS011;18310;55.586;12.286;2023-05-10T17:20:11;11.75;;;2.22;;
31730;SDS011;18310;55.586;12.286;2023-05-10T17:23:15;5.03;;;2.37;;
31730;SDS011;18310;55.586;12.286;2023-05-10T17:26:19;5.05;;;2.03;;
31730;SDS011;18310;55.586;12.286;2023-05-10T17:29:22;5.38;;;1.90;;
31730;SDS011;18310;55.586;12.286;2023-05-10T17:32:26;8.90;;;2.00;;
31730;SDS011;18310;55.586;12.286;2023-05-10T17:35:29;5.85;;;2.00;;
31730;SDS011;18310;55.586;12.286;2023-05-10T17:38:34;6.87;;;2.10;;
31730;SDS011;18310;55.586;12.286;2023-05-10T17:41:39;4.43;;;1.70;;
31730;SDS011;18310;55.586;12.286;2023-05-10T17:44:42;4.65;;;1.75;;
31730;SDS011;18310;55.586;12.286;2023-05-10T17:47:46;6.83;;;1.83;;
31730;SDS011;18310;55.586;12.286;2023-05-10T17:50:49;6.88;;;2.10;;
31730;SDS011;18310;55.586;12.286;2023-05-10T17:53:52;10.80;;;2.50;;
31730;SDS011;18310;55.586;12.286;2023-05-10T17:56:57;3.90;;;1.90;;
31730;SDS011;18310;55.586;12.286;2023-05-10T18:00:01;9.38;;;2.53;;
31730;SDS011;18310;55.586;12.286;2023-05-10T18:03:07;4.35;;;2.17;;
31730;SDS011;18310;55.586;12.286;2023-05-10T18:06:10;6.07;;;2.30;;
31730;SDS011;18310;55.586;12.286;2023-05-10T18:09:13;6.00;;;2.33;;
31730;SDS011;18310;55.586;12.286;2023-05-10T18:12:19;4.47;;;2.17;;
31730;SDS011;18310;55.586;12.286;2023-05-10T18:15:22;8.00;;;2.00;;
31730;SDS011;18310;55.586;12.286;2023-05-10T18:18:26;5.40;;;2.13;;
31730;SDS011;18310;55.586;12.286;2023-05-10T18:21:29;8.82;;;2.40;;
31730;SDS011;18310;55.586;12.286;2023-05-10T18:24:33;6.32;;;2.00;;
31730;SDS011;18310;55.586;12.286;2023-05-10T18:27:43;5.95;;;2.13;;
31730;SDS011;18310;55.586;12.286;2023-05-10T18:30:46;3.70;;;1.98;;
31730;SDS011;18310;55.586;12.286;2023-05-10T18:33:49;6.28;;;2.03;;
31730;SDS011;18310;55.586;12.286;2023-05-10T18:36:52;6.00;;;2.60;;
31730;SDS011;18310;55.586;12.286;2023-05-10T18:39:55;7.18;;;2.22;;
31730;SDS011;18310;55.586;12.286;2023-05-10T18:43:00;6.72;;;2.40;;